sensor_id;sensor_type;location;lat;lon;timestamp;P1;durP1;ratioP1;P2;durP2;ratioP2
58466;SDS011;44255;49.244;7.726;2023-03-01T04:32:08;22.15;;;8.80;;
58466;SDS011;44255;49.244;7.726;2023-03-01T04:36:59;19.80;;;9.13;;
58466;SDS011;44255;49.244;7.726;2023-03-01T04:39:24;21.45;;;10.25;;
58466;SDS011;44255;49.244;7.726;2023-03-01T04:41:49;25.92;;;9.48;;
58466;SDS011;44255;49.244;7.726;2023-03-01T04:44:14;29.60;;;10.25;;
58466;SDS011;44255;49.244;7.726;2023-03-01T04:46:40;27.33;;;10.30;;
58466;SDS011;44255;49.244;7.726;2023-03-01T04:49:05;25.38;;;9.93;;
58466;SDS011;44255;49.244;7.726;2023-03-01T04:51:30;28.75;;;10.50;;
58466;SDS011;44255;49.244;7.726;2023-03-01T04:53:57;24.10;;;9.10;;
58466;SDS011;44255;49.244;7.726;2023-03-01T04:56:23;30.13;;;10.65;;
58466;SDS011;44255;49.244;7.726;2023-03-01T04:58:48;28.27;;;9.75;;
58466;SDS011;44255;49.244;7.726;2023-03-01T05:03:44;19.35;;;8.63;;
58466;SDS011;44255;49.244;7.726;2023-03-01T05:06:14;26.48;;;8.95;;
58466;SDS011;44255;49.244;7.726;2023-03-01T05:08:41;20.70;;;9.07;;
58466;SDS011;44255;49.244;7.726;2023-03-01T05:11:07;19.48;;;7.93;;
58466;SDS011;44255;49.244;7.726;2023-03-01T05:13:34;18.92;;;7.90;;
58466;SDS011;44255;49.244;7.726;2023-03-01T05:16:00;20.75;;;8.45;;
58466;SDS011;44255;49.244;7.726;2023-03-01T05:18:27;23.65;;;8.02;;
58466;SDS011;44255;49.244;7.726;2023-03-01T05:20:55;24.52;;;9.27;;
58466;SDS011;44255;49.244;7.726;2023-03-01T05:23:26;22.38;;;8.43;;
58466;SDS011;44255;49.244;7.726;2023-03-01T05:25:51;20.42;;;8.50;;
58466;SDS011;44255;49.244;7.726;2023-03-01T05:28:17;23.30;;;9.30;;
58466;SDS011;44255;49.244;7.726;2023-03-01T05:30:44;18.13;;;8.00;;
58466;SDS011;44255;49.244;7.726;2023-03-01T05:33:10;18.88;;;8.10;;
58466;SDS011;44255;49.244;7.726;2023-03-01T05:35:38;20.10;;;8.18;;
58466;SDS011;44255;49.244;7.726;2023-03-01T05:38:06;18.25;;;8.32;;
58466;SDS011;44255;49.244;7.726;2023-03-01T05:40:32;22.73;;;9.60;;
58466;SDS011;44255;49.244;7.726;2023-03-01T05:42:58;22.30;;;8.80;;
58466;SDS011;44255;49.244;7.726;2023-03-01T05:45:24;20.45;;;8.50;;
58466;SDS011;44255;49.244;7.726;2023-03-01T05:47:51;18.48;;;7.75;;
58466;SDS011;44255;49.244;7.726;2023-03-01T05:50:18;17.65;;;8.15;;
58466;SDS011;44255;49.244;7.726;2023-03-01T05:52:49;16.58;;;7.47;;
58466;SDS011;44255;49.244;7.726;2023-03-01T05:55:20;19.88;;;7.22;;
58466;SDS011;44255;49.244;7.726;2023-03-01T05:57:46;20.17;;;8.00;;
58466;SDS011;44255;49.244;7.726;2023-03-01T06:00:12;20.67;;;7.85;;
58466;SDS011;44255;49.244;7.726;2023-03-01T06:02:38;21.33;;;8.45;;
58466;SDS011;44255;49.244;7.726;2023-03-01T06:05:07;20.73;;;9.30;;
58466;SDS011;44255;49.244;7.726;2023-03-01T06:07:34;22.88;;;8.63;;
58466;SDS011;44255;49.244;7.726;2023-03-01T06:10:00;22.33;;;8.85;;
58466;SDS011;44255;49.244;7.726;2023-03-01T06:12:25;22.02;;;8.15;;
58466;SDS011;44255;49.244;7.726;2023-03-01T06:14:50;22.80;;;8.32;;
58466;SDS011;44255;49.244;7.726;2023-03-01T06:17:16;26.20;;;8.93;;
58466;SDS011;44255;49.244;7.726;2023-03-01T06:19:41;35.60;;;14.20;;
58466;SDS011;44255;49.244;7.726;2023-03-01T06:22:06;34.17;;;14.10;;
58466;SDS011;44255;49.244;7.726;2023-03-01T06:24:32;31.33;;;12.95;;
58466;SDS011;44255;49.244;7.726;2023-03-01T06:26:58;45.30;;;14.95;;
58466;SDS011;44255;49.244;7.726;2023-03-01T06:29:23;41.70;;;14.48;;
58466;SDS011;44255;49.244;7.726;2023-03-01T06:31:48;36.88;;;14.63;;
58466;SDS011;44255;49.244;7.726;2023-03-01T06:34:14;54.75;;;17.88;;
58466;SDS011;44255;49.244;7.726;2023-03-01T06:36:39;55.22;;;19.77;;
58466;SDS011;44255;49.244;7.726;2023-03-01T06:39:05;53.05;;;17.67;;
58466;SDS011;44255;49.244;7.726;2023-03-01T06:41:31;42.95;;;16.90;;
58466;SDS011;44255;49.244;7.726;2023-03-01T06:43:57;45.28;;;16.95;;
58466;SDS011;44255;49.244;7.726;2023-03-01T06:46:23;37.92;;;14.95;;
58466;SDS011;44255;49.244;7.726;2023-03-01T06:51:14;32.65;;;13.18;;
58466;SDS011;44255;49.244;7.726;2023-03-01T06:53:39;39.70;;;15.10;;
58466;SDS011;44255;49.244;7.726;2023-03-01T06:56:04;41.47;;;14.80;;
58466;SDS011;44255;49.244;7.726;2023-03-01T07:00:55;37.38;;;15.65;;
58466;SDS011;44255;49.244;7.726;2023-03-01T07:03:20;29.45;;;14.02;;
